sensor_id;sensor_type;location;lat;lon;timestamp;P1;durP1;ratioP1;P2;durP2;ratioP2
76617;SDS011;65509;42.816;74.648;2023-05-10T00:02:29;31.00;;;7.40;;
76617;SDS011;65509;42.816;74.648;2023-05-10T00:04:55;43.60;;;8.82;;
76617;SDS011;65509;42.816;74.648;2023-05-10T00:07:20;40.40;;;8.52;;
76617;SDS011;65509;42.816;74.648;2023-05-10T00:09:46;33.47;;;7.47;;
76617;SDS011;65509;42.816;74.648;2023-05-10T00:12:11;32.75;;;8.45;;
76617;SDS011;65509;42.816;74.648;2023-05-10T00:14:37;42.22;;;9.80;;
76617;SDS011;65509;42.816;74.648;2023-05-10T00:17:02;36.22;;;9.00;;
76617;SDS011;65509;42.816;74.648;2023-05-10T00:19:28;36.88;;;9.48;;
76617;SDS011;65509;42.816;74.648;2023-05-10T00:21:53;41.67;;;9.38;;
76617;SDS011;65509;42.816;74.648;2023-05-10T00:24:19;33.15;;;9.20;;
76617;SDS011;65509;42.816;74.648;2023-05-10T00:26:44;46.63;;;12.45;;
76617;SDS011;65509;42.816;74.648;2023-05-10T00:29:10;36.67;;;9.57;;
76617;SDS011;65509;42.816;74.648;2023-05-10T00:31:35;39.00;;;9.02;;
76617;SDS011;65509;42.816;74.648;2023-05-10T00:34:00;32.53;;;7.78;;
76617;SDS011;65509;42.816;74.648;2023-05-10T00:36:26;42.80;;;9.10;;
76617;SDS011;65509;42.816;74.648;2023-05-10T00:38:53;38.78;;;8.60;;
76617;SDS011;65509;42.816;74.648;2023-05-10T00:41:18;37.65;;;10.98;;
76617;SDS011;65509;42.816;74.648;2023-05-10T00:43:44;34.92;;;8.23;;
76617;SDS011;65509;42.816;74.648;2023-05-10T00:46:09;38.13;;;8.93;;
76617;SDS011;65509;42.816;74.648;2023-05-10T00:48:35;33.45;;;7.60;;
76617;SDS011;65509;42.816;74.648;2023-05-10T00:51:01;30.33;;;7.40;;
76617;SDS011;65509;42.816;74.648;2023-05-10T00:53:27;29.42;;;7.88;;
76617;SDS011;65509;42.816;74.648;2023-05-10T00:55:52;32.03;;;9.18;;
76617;SDS011;65509;42.816;74.648;2023-05-10T00:58:18;27.13;;;6.50;;
76617;SDS011;65509;42.816;74.648;2023-05-10T01:00:43;29.40;;;6.07;;
76617;SDS011;65509;42.816;74.648;2023-05-10T01:03:10;30.67;;;7.55;;
76617;SDS011;65509;42.816;74.648;2023-05-10T01:05:36;27.48;;;6.75;;
76617;SDS011;65509;42.816;74.648;2023-05-10T01:08:02;30.00;;;7.90;;
76617;SDS011;65509;42.816;74.648;2023-05-10T01:10:33;36.35;;;7.95;;
76617;SDS011;65509;42.816;74.648;2023-05-10T01:12:59;41.85;;;10.68;;
76617;SDS011;65509;42.816;74.648;2023-05-10T01:15:25;40.60;;;9.98;;
76617;SDS011;65509;42.816;74.648;2023-05-10T01:17:50;30.83;;;8.32;;
76617;SDS011;65509;42.816;74.648;2023-05-10T01:20:16;34.08;;;7.63;;
76617;SDS011;65509;42.816;74.648;2023-05-10T01:23:02;44.80;;;8.95;;
76617;SDS011;65509;42.816;74.648;2023-05-10T01:25:37;24.88;;;7.03;;
76617;SDS011;65509;42.816;74.648;2023-05-10T01:33:46;32.47;;;6.85;;
76617;SDS011;65509;42.816;74.648;2023-05-10T01:38:43;49.90;;;9.48;;
76617;SDS011;65509;42.816;74.648;2023-05-10T01:43:37;65.90;;;13.20;;
76617;SDS011;65509;42.816;74.648;2023-05-10T01:46:07;49.30;;;11.75;;
76617;SDS011;65509;42.816;74.648;2023-05-10T01:48:40;49.63;;;9.82;;
76617;SDS011;65509;42.816;74.648;2023-05-10T01:51:06;40.70;;;10.63;;
76617;SDS011;65509;42.816;74.648;2023-05-10T01:53:32;38.58;;;8.27;;
76617;SDS011;65509;42.816;74.648;2023-05-10T01:56:00;34.42;;;8.65;;
76617;SDS011;65509;42.816;74.648;2023-05-10T01:58:28;50.72;;;11.13;;
76617;SDS011;65509;42.816;74.648;2023-05-10T02:00:53;71.20;;;13.98;;
76617;SDS011;65509;42.816;74.648;2023-05-10T02:03:23;33.88;;;9.90;;
76617;SDS011;65509;42.816;74.648;2023-05-10T02:05:49;31.15;;;8.20;;
76617;SDS011;65509;42.816;74.648;2023-05-10T02:08:15;43.42;;;9.55;;
76617;SDS011;65509;42.816;74.648;2023-05-10T02:10:42;41.47;;;8.18;;
76617;SDS011;65509;42.816;74.648;2023-05-10T02:13:08;30.08;;;5.88;;
76617;SDS011;65509;42.816;74.648;2023-05-10T02:15:34;34.58;;;6.15;;
76617;SDS011;65509;42.816;74.648;2023-05-10T02:18:00;42.00;;;7.10;;
76617;SDS011;65509;42.816;74.648;2023-05-10T02:20:27;34.67;;;8.02;;
76617;SDS011;65509;42.816;74.648;2023-05-10T02:22:54;39.88;;;8.50;;
76617;SDS011;65509;42.816;74.648;2023-05-10T02:25:21;33.58;;;7.55;;
76617;SDS011;65509;42.816;74.648;2023-05-10T02:27:47;33.25;;;8.23;;
76617;SDS011;65509;42.816;74.648;2023-05-10T02:30:12;44.72;;;8.25;;
76617;SDS011;65509;42.816;74.648;2023-05-10T02:32:38;28.35;;;6.15;;
76617;SDS011;65509;42.816;74.648;2023-05-10T02:35:04;34.38;;;7.22;;
76617;SDS011;65509;42.816;74.648;2023-05-10T02:37:30;39.67;;;6.65;;
76617;SDS011;65509;42.816;74.648;2023-05-10T02:39:55;33.92;;;6.50;;
76617;SDS011;65509;42.816;74.648;2023-05-10T02:42:27;39.13;;;6.18;;
76617;SDS011;65509;42.816;74.648;2023-05-10T02:44:56;23.10;;;5.68;;
76617;SDS011;65509;42.816;74.648;2023-05-10T02:47:22;28.25;;;4.50;;
76617;SDS011;65509;42.816;74.648;2023-05-10T02:53:01;27.15;;;4.88;;
76617;SDS011;65509;42.816;74.648;2023-05-10T02:55:31;33.78;;;5.32;;
76617;SDS011;65509;42.816;74.648;2023-05-10T02:58:00;29.52;;;5.50;;
76617;SDS011;65509;42.816;74.648;2023-05-10T03:00:27;20.98;;;4.32;;
76617;SDS011;65509;42.816;74.648;2023-05-10T03:02:52;28.33;;;5.75;;
76617;SDS011;65509;42.816;74.648;2023-05-10T03:05:18;26.90;;;4.90;;
76617;SDS011;65509;42.816;74.648;2023-05-10T03:07:44;25.55;;;4.88;;
76617;SDS011;65509;42.816;74.648;2023-05-10T03:10:10;27.50;;;4.70;;
76617;SDS011;65509;42.816;74.648;2023-05-10T03:17:55;29.70;;;5.07;;
76617;SDS011;65509;42.816;74.648;2023-05-10T03:20:31;22.70;;;4.28;;
76617;SDS011;65509;42.816;74.648;2023-05-10T03:23:02;34.25;;;6.95;;
76617;SDS011;65509;42.816;74.648;2023-05-10T03:25:31;23.27;;;5.20;;
76617;SDS011;65509;42.816;74.648;2023-05-10T03:27:57;29.45;;;5.60;;
76617;SDS011;65509;42.816;74.648;2023-05-10T03:30:24;22.85;;;4.47;;
76617;SDS011;65509;42.816;74.648;2023-05-10T03:32:50;31.30;;;5.35;;
76617;SDS011;65509;42.816;74.648;2023-05-10T03:35:15;33.35;;;5.72;;
76617;SDS011;65509;42.816;74.648;2023-05-10T03:37:41;33.47;;;6.57;;
76617;SDS011;65509;42.816;74.648;2023-05-10T03:40:07;34.03;;;6.00;;
76617;SDS011;65509;42.816;74.648;2023-05-10T03:42:32;29.35;;;5.68;;
76617;SDS011;65509;42.816;74.648;2023-05-10T03:44:58;36.33;;;5.70;;
76617;SDS011;65509;42.816;74.648;2023-05-10T03:47:23;30.48;;;5.55;;
76617;SDS011;65509;42.816;74.648;2023-05-10T03:49:48;30.80;;;5.82;;
76617;SDS011;65509;42.816;74.648;2023-05-10T03:52:14;25.75;;;5.03;;
76617;SDS011;65509;42.816;74.648;2023-05-10T03:54:39;30.45;;;5.18;;
76617;SDS011;65509;42.816;74.648;2023-05-10T03:57:08;30.38;;;5.45;;
76617;SDS011;65509;42.816;74.648;2023-05-10T03:59:34;28.60;;;5.53;;
76617;SDS011;65509;42.816;74.648;2023-05-10T04:02:00;36.83;;;5.32;;
76617;SDS011;65509;42.816;74.648;2023-05-10T04:04:25;34.47;;;5.30;;
76617;SDS011;65509;42.816;74.648;2023-05-10T04:06:51;26.27;;;5.63;;
76617;SDS011;65509;42.816;74.648;2023-05-10T04:09:16;32.83;;;5.63;;
76617;SDS011;65509;42.816;74.648;2023-05-10T04:11:42;30.60;;;5.68;;
76617;SDS011;65509;42.816;74.648;2023-05-10T04:14:08;38.72;;;6.13;;
76617;SDS011;65509;42.816;74.648;2023-05-10T04:16:33;24.75;;;5.25;;
76617;SDS011;65509;42.816;74.648;2023-05-10T04:18:59;29.20;;;5.30;;
76617;SDS011;65509;42.816;74.648;2023-05-10T04:21:25;27.98;;;5.32;;
76617;SDS011;65509;42.816;74.648;2023-05-10T04:23:50;39.67;;;6.28;;
76617;SDS011;65509;42.816;74.648;2023-05-10T04:26:16;21.45;;;4.63;;
76617;SDS011;65509;42.816;74.648;2023-05-10T04:28:41;29.77;;;5.90;;
76617;SDS011;65509;42.816;74.648;2023-05-10T04:31:07;39.97;;;6.75;;
76617;SDS011;65509;42.816;74.648;2023-05-10T04:33:33;27.23;;;5.05;;
76617;SDS011;65509;42.816;74.648;2023-05-10T04:35:59;23.83;;;4.97;;
76617;SDS011;65509;42.816;74.648;2023-05-10T04:38:25;31.60;;;5.63;;
76617;SDS011;65509;42.816;74.648;2023-05-10T04:40:52;38.92;;;6.00;;
76617;SDS011;65509;42.816;74.648;2023-05-10T04:43:17;35.13;;;5.93;;
76617;SDS011;65509;42.816;74.648;2023-05-10T04:45:43;31.15;;;5.63;;
76617;SDS011;65509;42.816;74.648;2023-05-10T04:48:08;41.65;;;6.35;;
76617;SDS011;65509;42.816;74.648;2023-05-10T04:50:33;28.98;;;5.20;;
76617;SDS011;65509;42.816;74.648;2023-05-10T04:52:59;37.28;;;5.97;;
76617;SDS011;65509;42.816;74.648;2023-05-10T04:55:24;38.35;;;5.85;;
76617;SDS011;65509;42.816;74.648;2023-05-10T04:57:51;34.05;;;5.40;;
76617;SDS011;65509;42.816;74.648;2023-05-10T05:00:17;37.03;;;6.13;;
76617;SDS011;65509;42.816;74.648;2023-05-10T05:02:43;37.85;;;6.53;;
76617;SDS011;65509;42.816;74.648;2023-05-10T05:05:10;37.58;;;6.30;;
76617;SDS011;65509;42.816;74.648;2023-05-10T05:07:35;25.52;;;4.85;;
76617;SDS011;65509;42.816;74.648;2023-05-10T05:10:01;38.35;;;6.35;;
76617;SDS011;65509;42.816;74.648;2023-05-10T05:12:26;41.95;;;5.82;;
76617;SDS011;65509;42.816;74.648;2023-05-10T05:14:52;42.05;;;7.28;;
76617;SDS011;65509;42.816;74.648;2023-05-10T05:17:17;34.60;;;5.95;;
76617;SDS011;65509;42.816;74.648;2023-05-10T05:19:43;29.58;;;5.30;;
76617;SDS011;65509;42.816;74.648;2023-05-10T05:22:08;39.13;;;5.78;;
76617;SDS011;65509;42.816;74.648;2023-05-10T05:24:37;35.83;;;6.43;;
76617;SDS011;65509;42.816;74.648;2023-05-10T05:27:03;48.95;;;7.10;;
76617;SDS011;65509;42.816;74.648;2023-05-10T05:29:28;36.08;;;5.70;;
76617;SDS011;65509;42.816;74.648;2023-05-10T05:31:54;53.88;;;6.07;;
76617;SDS011;65509;42.816;74.648;2023-05-10T05:34:20;31.40;;;6.38;;
76617;SDS011;65509;42.816;74.648;2023-05-10T05:36:46;29.92;;;5.65;;
76617;SDS011;65509;42.816;74.648;2023-05-10T05:39:12;39.80;;;6.18;;
76617;SDS011;65509;42.816;74.648;2023-05-10T05:41:40;36.40;;;6.13;;
76617;SDS011;65509;42.816;74.648;2023-05-10T05:44:09;41.03;;;7.28;;
76617;SDS011;65509;42.816;74.648;2023-05-10T05:46:35;41.92;;;6.78;;
76617;SDS011;65509;42.816;74.648;2023-05-10T05:49:02;32.35;;;5.97;;
76617;SDS011;65509;42.816;74.648;2023-05-10T05:51:28;27.73;;;5.68;;
76617;SDS011;65509;42.816;74.648;2023-05-10T05:53:53;36.83;;;6.53;;
76617;SDS011;65509;42.816;74.648;2023-05-10T05:56:19;36.88;;;6.18;;
76617;SDS011;65509;42.816;74.648;2023-05-10T05:58:50;27.13;;;4.75;;
76617;SDS011;65509;42.816;74.648;2023-05-10T06:01:15;39.28;;;7.03;;
76617;SDS011;65509;42.816;74.648;2023-05-10T06:03:41;29.27;;;5.63;;
76617;SDS011;65509;42.816;74.648;2023-05-10T06:06:06;29.77;;;5.93;;
76617;SDS011;65509;42.816;74.648;2023-05-10T06:08:32;31.60;;;6.10;;
76617;SDS011;65509;42.816;74.648;2023-05-10T06:10:59;36.75;;;6.32;;
76617;SDS011;65509;42.816;74.648;2023-05-10T06:13:24;32.28;;;4.85;;
76617;SDS011;65509;42.816;74.648;2023-05-10T06:15:50;26.00;;;5.50;;
76617;SDS011;65509;42.816;74.648;2023-05-10T06:18:16;38.05;;;6.63;;
76617;SDS011;65509;42.816;74.648;2023-05-10T06:20:41;34.42;;;5.43;;
76617;SDS011;65509;42.816;74.648;2023-05-10T06:23:08;39.75;;;7.07;;
76617;SDS011;65509;42.816;74.648;2023-05-10T06:25:33;35.38;;;6.20;;
76617;SDS011;65509;42.816;74.648;2023-05-10T06:27:58;37.78;;;6.38;;
76617;SDS011;65509;42.816;74.648;2023-05-10T06:30:25;44.17;;;7.63;;
76617;SDS011;65509;42.816;74.648;2023-05-10T06:32:53;38.50;;;6.68;;
76617;SDS011;65509;42.816;74.648;2023-05-10T06:35:18;32.95;;;6.90;;
76617;SDS011;65509;42.816;74.648;2023-05-10T06:37:44;39.55;;;6.25;;
76617;SDS011;65509;42.816;74.648;2023-05-10T06:40:09;31.85;;;5.25;;
76617;SDS011;65509;42.816;74.648;2023-05-10T06:42:35;27.88;;;5.80;;
76617;SDS011;65509;42.816;74.648;2023-05-10T06:45:00;27.92;;;6.00;;
76617;SDS011;65509;42.816;74.648;2023-05-10T06:47:26;32.28;;;5.53;;
76617;SDS011;65509;42.816;74.648;2023-05-10T06:49:51;34.40;;;6.25;;
76617;SDS011;65509;42.816;74.648;2023-05-10T06:52:17;56.28;;;9.07;;
76617;SDS011;65509;42.816;74.648;2023-05-10T06:54:42;49.38;;;7.35;;
76617;SDS011;65509;42.816;74.648;2023-05-10T06:57:07;30.90;;;6.15;;
76617;SDS011;65509;42.816;74.648;2023-05-10T06:59:33;35.72;;;5.85;;
76617;SDS011;65509;42.816;74.648;2023-05-10T07:02:01;33.78;;;5.85;;
76617;SDS011;65509;42.816;74.648;2023-05-10T07:04:27;33.17;;;6.07;;
76617;SDS011;65509;42.816;74.648;2023-05-10T07:06:52;29.05;;;5.72;;
76617;SDS011;65509;42.816;74.648;2023-05-10T07:09:18;37.25;;;6.88;;
76617;SDS011;65509;42.816;74.648;2023-05-10T07:11:43;74.05;;;8.27;;
76617;SDS011;65509;42.816;74.648;2023-05-10T07:14:09;37.63;;;6.97;;
76617;SDS011;65509;42.816;74.648;2023-05-10T07:16:34;34.78;;;6.05;;
76617;SDS011;65509;42.816;74.648;2023-05-10T07:19:00;40.67;;;6.35;;
76617;SDS011;65509;42.816;74.648;2023-05-10T07:21:25;29.75;;;5.93;;
76617;SDS011;65509;42.816;74.648;2023-05-10T07:23:56;33.40;;;5.57;;
76617;SDS011;65509;42.816;74.648;2023-05-10T07:26:22;37.10;;;6.53;;
76617;SDS011;65509;42.816;74.648;2023-05-10T07:28:47;35.30;;;6.10;;
76617;SDS011;65509;42.816;74.648;2023-05-10T07:31:13;31.48;;;6.68;;
76617;SDS011;65509;42.816;74.648;2023-05-10T07:33:38;28.85;;;6.45;;
76617;SDS011;65509;42.816;74.648;2023-05-10T07:36:04;26.98;;;4.97;;
76617;SDS011;65509;42.816;74.648;2023-05-10T07:38:29;39.72;;;6.75;;
76617;SDS011;65509;42.816;74.648;2023-05-10T07:40:55;30.88;;;6.10;;
76617;SDS011;65509;42.816;74.648;2023-05-10T07:43:20;26.30;;;5.97;;
76617;SDS011;65509;42.816;74.648;2023-05-10T07:45:46;30.33;;;5.53;;
76617;SDS011;65509;42.816;74.648;2023-05-10T07:48:11;29.73;;;5.43;;
76617;SDS011;65509;42.816;74.648;2023-05-10T07:50:36;29.17;;;5.93;;
76617;SDS011;65509;42.816;74.648;2023-05-10T07:53:02;29.55;;;5.72;;
76617;SDS011;65509;42.816;74.648;2023-05-10T07:55:28;35.53;;;6.53;;
76617;SDS011;65509;42.816;74.648;2023-05-10T07:57:53;34.78;;;6.70;;
76617;SDS011;65509;42.816;74.648;2023-05-10T08:00:19;35.10;;;7.03;;
76617;SDS011;65509;42.816;74.648;2023-05-10T08:02:45;38.58;;;5.93;;
76617;SDS011;65509;42.816;74.648;2023-05-10T08:05:11;26.08;;;6.07;;
76617;SDS011;65509;42.816;74.648;2023-05-10T08:07:37;24.80;;;5.30;;
76617;SDS011;65509;42.816;74.648;2023-05-10T08:10:02;28.88;;;5.32;;
76617;SDS011;65509;42.816;74.648;2023-05-10T08:12:46;32.50;;;6.00;;
76617;SDS011;65509;42.816;74.648;2023-05-10T08:15:11;34.92;;;6.75;;
76617;SDS011;65509;42.816;74.648;2023-05-10T08:17:37;48.17;;;7.30;;
76617;SDS011;65509;42.816;74.648;2023-05-10T08:20:02;32.92;;;6.35;;
76617;SDS011;65509;42.816;74.648;2023-05-10T08:22:28;40.35;;;5.90;;
76617;SDS011;65509;42.816;74.648;2023-05-10T08:24:53;26.25;;;5.25;;
76617;SDS011;65509;42.816;74.648;2023-05-10T08:27:25;35.65;;;6.97;;
76617;SDS011;65509;42.816;74.648;2023-05-10T08:29:51;23.65;;;5.60;;
76617;SDS011;65509;42.816;74.648;2023-05-10T08:32:18;28.55;;;6.07;;
76617;SDS011;65509;42.816;74.648;2023-05-10T08:34:44;35.22;;;6.03;;
76617;SDS011;65509;42.816;74.648;2023-05-10T08:37:10;34.13;;;6.22;;
76617;SDS011;65509;42.816;74.648;2023-05-10T08:39:38;31.58;;;6.20;;
76617;SDS011;65509;42.816;74.648;2023-05-10T08:42:04;41.33;;;7.05;;
76617;SDS011;65509;42.816;74.648;2023-05-10T08:44:36;28.45;;;5.72;;
76617;SDS011;65509;42.816;74.648;2023-05-10T08:47:04;31.55;;;5.70;;
76617;SDS011;65509;42.816;74.648;2023-05-10T08:49:30;30.52;;;6.05;;
76617;SDS011;65509;42.816;74.648;2023-05-10T08:51:56;27.83;;;5.55;;
76617;SDS011;65509;42.816;74.648;2023-05-10T08:54:22;35.70;;;7.00;;
76617;SDS011;65509;42.816;74.648;2023-05-10T08:56:48;24.00;;;5.72;;
76617;SDS011;65509;42.816;74.648;2023-05-10T08:59:14;31.42;;;6.28;;
76617;SDS011;65509;42.816;74.648;2023-05-10T09:01:42;42.58;;;6.85;;
76617;SDS011;65509;42.816;74.648;2023-05-10T09:04:09;42.95;;;6.72;;
76617;SDS011;65509;42.816;74.648;2023-05-10T09:06:34;48.15;;;7.25;;
76617;SDS011;65509;42.816;74.648;2023-05-10T09:09:00;32.25;;;6.00;;
76617;SDS011;65509;42.816;74.648;2023-05-10T09:11:26;42.55;;;6.93;;
76617;SDS011;65509;42.816;74.648;2023-05-10T09:13:54;35.03;;;6.18;;
76617;SDS011;65509;42.816;74.648;2023-05-10T09:16:20;46.28;;;7.40;;
76617;SDS011;65509;42.816;74.648;2023-05-10T09:18:45;48.17;;;6.70;;
76617;SDS011;65509;42.816;74.648;2023-05-10T09:21:15;46.20;;;7.63;;
76617;SDS011;65509;42.816;74.648;2023-05-10T09:23:44;42.92;;;6.93;;
76617;SDS011;65509;42.816;74.648;2023-05-10T09:26:11;33.80;;;5.60;;
76617;SDS011;65509;42.816;74.648;2023-05-10T09:28:53;40.28;;;6.43;;
76617;SDS011;65509;42.816;74.648;2023-05-10T09:31:19;52.55;;;8.50;;
76617;SDS011;65509;42.816;74.648;2023-05-10T09:33:45;40.50;;;5.95;;
76617;SDS011;65509;42.816;74.648;2023-05-10T09:36:11;39.15;;;6.20;;
76617;SDS011;65509;42.816;74.648;2023-05-10T09:38:50;45.38;;;6.55;;
76617;SDS011;65509;42.816;74.648;2023-05-10T09:41:23;42.00;;;7.07;;
76617;SDS011;65509;42.816;74.648;2023-05-10T09:43:49;35.10;;;6.00;;
76617;SDS011;65509;42.816;74.648;2023-05-10T09:46:15;41.00;;;7.00;;
76617;SDS011;65509;42.816;74.648;2023-05-10T09:48:44;33.35;;;5.90;;
76617;SDS011;65509;42.816;74.648;2023-05-10T09:51:10;33.90;;;5.28;;
76617;SDS011;65509;42.816;74.648;2023-05-10T09:53:35;32.33;;;5.90;;
76617;SDS011;65509;42.816;74.648;2023-05-10T09:56:01;39.22;;;6.32;;
76617;SDS011;65509;42.816;74.648;2023-05-10T09:58:26;32.45;;;5.43;;
76617;SDS011;65509;42.816;74.648;2023-05-10T10:00:52;31.35;;;5.50;;
76617;SDS011;65509;42.816;74.648;2023-05-10T10:03:19;47.50;;;6.93;;
76617;SDS011;65509;42.816;74.648;2023-05-10T10:05:46;44.55;;;6.70;;
76617;SDS011;65509;42.816;74.648;2023-05-10T10:08:13;55.03;;;7.68;;
76617;SDS011;65509;42.816;74.648;2023-05-10T10:10:39;39.95;;;6.50;;
76617;SDS011;65509;42.816;74.648;2023-05-10T10:13:09;31.40;;;4.97;;
76617;SDS011;65509;42.816;74.648;2023-05-10T10:15:35;37.97;;;6.43;;
76617;SDS011;65509;42.816;74.648;2023-05-10T10:18:00;42.08;;;6.78;;
76617;SDS011;65509;42.816;74.648;2023-05-10T10:20:26;63.25;;;8.48;;
76617;SDS011;65509;42.816;74.648;2023-05-10T10:22:52;39.35;;;6.82;;
76617;SDS011;65509;42.816;74.648;2023-05-10T10:25:18;32.75;;;6.35;;
76617;SDS011;65509;42.816;74.648;2023-05-10T10:35:10;32.42;;;5.53;;
76617;SDS011;65509;42.816;74.648;2023-05-10T10:37:45;51.28;;;7.63;;
76617;SDS011;65509;42.816;74.648;2023-05-10T10:43:25;35.85;;;6.78;;
76617;SDS011;65509;42.816;74.648;2023-05-10T10:48:34;31.30;;;6.00;;
76617;SDS011;65509;42.816;74.648;2023-05-10T10:51:00;33.60;;;6.13;;
76617;SDS011;65509;42.816;74.648;2023-05-10T10:53:26;35.65;;;6.22;;
76617;SDS011;65509;42.816;74.648;2023-05-10T10:56:02;38.55;;;6.10;;
76617;SDS011;65509;42.816;74.648;2023-05-10T10:58:30;41.85;;;6.40;;
76617;SDS011;65509;42.816;74.648;2023-05-10T11:01:09;44.42;;;6.90;;
76617;SDS011;65509;42.816;74.648;2023-05-10T11:03:35;41.70;;;6.40;;
76617;SDS011;65509;42.816;74.648;2023-05-10T11:06:00;37.70;;;5.40;;
76617;SDS011;65509;42.816;74.648;2023-05-10T11:13:27;44.47;;;7.40;;
76617;SDS011;65509;42.816;74.648;2023-05-10T11:15:53;31.92;;;6.20;;
76617;SDS011;65509;42.816;74.648;2023-05-10T11:18:26;50.55;;;7.47;;
76617;SDS011;65509;42.816;74.648;2023-05-10T11:20:52;35.13;;;5.70;;
76617;SDS011;65509;42.816;74.648;2023-05-10T11:23:20;41.42;;;6.82;;
76617;SDS011;65509;42.816;74.648;2023-05-10T11:25:47;37.35;;;6.40;;
76617;SDS011;65509;42.816;74.648;2023-05-10T11:28:18;33.28;;;5.65;;
76617;SDS011;65509;42.816;74.648;2023-05-10T11:30:44;47.40;;;6.78;;
76617;SDS011;65509;42.816;74.648;2023-05-10T11:33:14;35.50;;;6.32;;
76617;SDS011;65509;42.816;74.648;2023-05-10T11:35:43;52.05;;;8.35;;
76617;SDS011;65509;42.816;74.648;2023-05-10T11:38:09;89.63;;;12.07;;
76617;SDS011;65509;42.816;74.648;2023-05-10T11:40:37;46.00;;;6.70;;
76617;SDS011;65509;42.816;74.648;2023-05-10T11:43:03;35.42;;;6.35;;
76617;SDS011;65509;42.816;74.648;2023-05-10T11:45:32;41.65;;;6.88;;
76617;SDS011;65509;42.816;74.648;2023-05-10T11:47:58;42.17;;;6.50;;
76617;SDS011;65509;42.816;74.648;2023-05-10T11:50:23;33.15;;;6.53;;
76617;SDS011;65509;42.816;74.648;2023-05-10T11:52:51;38.28;;;6.32;;
76617;SDS011;65509;42.816;74.648;2023-05-10T11:55:17;30.77;;;5.55;;
76617;SDS011;65509;42.816;74.648;2023-05-10T11:57:42;47.90;;;7.53;;
76617;SDS011;65509;42.816;74.648;2023-05-10T12:00:11;87.68;;;12.25;;
76617;SDS011;65509;42.816;74.648;2023-05-10T12:02:36;41.97;;;6.60;;
76617;SDS011;65509;42.816;74.648;2023-05-10T12:05:02;39.85;;;6.13;;
76617;SDS011;65509;42.816;74.648;2023-05-10T12:07:28;83.68;;;11.80;;
76617;SDS011;65509;42.816;74.648;2023-05-10T12:10:09;37.72;;;6.32;;
76617;SDS011;65509;42.816;74.648;2023-05-10T12:12:38;52.03;;;8.30;;
76617;SDS011;65509;42.816;74.648;2023-05-10T12:15:05;79.53;;;12.38;;
76617;SDS011;65509;42.816;74.648;2023-05-10T12:17:31;54.53;;;7.75;;
76617;SDS011;65509;42.816;74.648;2023-05-10T12:20:12;41.13;;;7.30;;
76617;SDS011;65509;42.816;74.648;2023-05-10T12:22:39;75.35;;;11.80;;
76617;SDS011;65509;42.816;74.648;2023-05-10T12:25:08;43.47;;;8.70;;
76617;SDS011;65509;42.816;74.648;2023-05-10T12:27:34;56.00;;;9.52;;
76617;SDS011;65509;42.816;74.648;2023-05-10T12:30:00;49.20;;;8.15;;
76617;SDS011;65509;42.816;74.648;2023-05-10T12:32:41;43.33;;;8.18;;
76617;SDS011;65509;42.816;74.648;2023-05-10T12:35:06;39.67;;;6.75;;
76617;SDS011;65509;42.816;74.648;2023-05-10T12:37:32;53.70;;;8.13;;
76617;SDS011;65509;42.816;74.648;2023-05-10T12:40:00;36.28;;;7.00;;
76617;SDS011;65509;42.816;74.648;2023-05-10T12:42:26;53.17;;;8.98;;
76617;SDS011;65509;42.816;74.648;2023-05-10T12:44:59;113.00;;;17.40;;
76617;SDS011;65509;42.816;74.648;2023-05-10T12:47:24;38.42;;;7.38;;
76617;SDS011;65509;42.816;74.648;2023-05-10T12:49:50;33.88;;;7.07;;
76617;SDS011;65509;42.816;74.648;2023-05-10T12:52:16;44.20;;;7.95;;
76617;SDS011;65509;42.816;74.648;2023-05-10T12:54:45;37.33;;;5.90;;
76617;SDS011;65509;42.816;74.648;2023-05-10T12:57:11;44.38;;;8.35;;
76617;SDS011;65509;42.816;74.648;2023-05-10T12:59:39;46.42;;;10.23;;
76617;SDS011;65509;42.816;74.648;2023-05-10T13:02:05;49.58;;;7.57;;
76617;SDS011;65509;42.816;74.648;2023-05-10T13:04:33;43.28;;;7.90;;
76617;SDS011;65509;42.816;74.648;2023-05-10T13:06:59;30.10;;;6.35;;
76617;SDS011;65509;42.816;74.648;2023-05-10T13:09:27;54.28;;;7.68;;
76617;SDS011;65509;42.816;74.648;2023-05-10T13:11:55;34.88;;;6.57;;
76617;SDS011;65509;42.816;74.648;2023-05-10T13:14:21;46.45;;;7.78;;
76617;SDS011;65509;42.816;74.648;2023-05-10T13:16:47;47.05;;;6.97;;
76617;SDS011;65509;42.816;74.648;2023-05-10T13:19:18;34.97;;;6.93;;
76617;SDS011;65509;42.816;74.648;2023-05-10T13:21:43;50.85;;;7.60;;
76617;SDS011;65509;42.816;74.648;2023-05-10T13:24:12;33.47;;;5.82;;
76617;SDS011;65509;42.816;74.648;2023-05-10T13:26:40;30.17;;;6.45;;
76617;SDS011;65509;42.816;74.648;2023-05-10T13:29:09;23.83;;;5.32;;
76617;SDS011;65509;42.816;74.648;2023-05-10T13:31:37;55.25;;;7.65;;
76617;SDS011;65509;42.816;74.648;2023-05-10T13:34:03;36.70;;;8.10;;
76617;SDS011;65509;42.816;74.648;2023-05-10T13:36:28;39.47;;;8.73;;
76617;SDS011;65509;42.816;74.648;2023-05-10T13:38:54;42.63;;;7.93;;
76617;SDS011;65509;42.816;74.648;2023-05-10T13:41:20;46.53;;;7.82;;
76617;SDS011;65509;42.816;74.648;2023-05-10T13:43:45;35.08;;;7.35;;
76617;SDS011;65509;42.816;74.648;2023-05-10T13:46:13;38.72;;;8.30;;
76617;SDS011;65509;42.816;74.648;2023-05-10T13:48:39;70.40;;;12.20;;
76617;SDS011;65509;42.816;74.648;2023-05-10T13:51:04;63.60;;;13.13;;
76617;SDS011;65509;42.816;74.648;2023-05-10T13:53:33;57.10;;;12.40;;
76617;SDS011;65509;42.816;74.648;2023-05-10T13:55:58;52.83;;;11.93;;
76617;SDS011;65509;42.816;74.648;2023-05-10T13:58:33;56.65;;;15.30;;
76617;SDS011;65509;42.816;74.648;2023-05-10T14:01:00;101.97;;;41.30;;
76617;SDS011;65509;42.816;74.648;2023-05-10T14:03:26;86.40;;;23.25;;
76617;SDS011;65509;42.816;74.648;2023-05-10T14:05:51;44.15;;;11.40;;
76617;SDS011;65509;42.816;74.648;2023-05-10T14:08:17;49.67;;;14.80;;
76617;SDS011;65509;42.816;74.648;2023-05-10T14:10:42;49.60;;;11.60;;
76617;SDS011;65509;42.816;74.648;2023-05-10T14:13:08;37.42;;;8.25;;
76617;SDS011;65509;42.816;74.648;2023-05-10T14:15:38;33.67;;;7.60;;
76617;SDS011;65509;42.816;74.648;2023-05-10T14:18:04;34.65;;;6.80;;
76617;SDS011;65509;42.816;74.648;2023-05-10T14:20:41;49.45;;;7.55;;
76617;SDS011;65509;42.816;74.648;2023-05-10T14:23:07;31.42;;;6.45;;
76617;SDS011;65509;42.816;74.648;2023-05-10T14:25:32;40.33;;;8.35;;
76617;SDS011;65509;42.816;74.648;2023-05-10T14:27:58;39.47;;;7.40;;
76617;SDS011;65509;42.816;74.648;2023-05-10T14:30:23;30.52;;;6.30;;
76617;SDS011;65509;42.816;74.648;2023-05-10T14:32:49;33.28;;;6.70;;
76617;SDS011;65509;42.816;74.648;2023-05-10T14:35:14;41.05;;;6.72;;
76617;SDS011;65509;42.816;74.648;2023-05-10T14:37:40;29.65;;;8.13;;
76617;SDS011;65509;42.816;74.648;2023-05-10T14:40:08;52.63;;;10.18;;
76617;SDS011;65509;42.816;74.648;2023-05-10T14:42:34;39.00;;;9.38;;
76617;SDS011;65509;42.816;74.648;2023-05-10T14:45:00;58.33;;;10.05;;
76617;SDS011;65509;42.816;74.648;2023-05-10T14:47:25;30.08;;;8.02;;
76617;SDS011;65509;42.816;74.648;2023-05-10T14:49:50;43.92;;;7.72;;
76617;SDS011;65509;42.816;74.648;2023-05-10T14:52:16;37.08;;;7.72;;
76617;SDS011;65509;42.816;74.648;2023-05-10T14:54:42;35.08;;;6.90;;
76617;SDS011;65509;42.816;74.648;2023-05-10T14:57:10;33.45;;;6.35;;